sensor_id;sensor_type;location;lat;lon;timestamp;P1;durP1;ratioP1;P2;durP2;ratioP2
46597;SDS011;32318;48.858;8.252;2023-05-17T00:03:33;7.28;;;1.60;;
46597;SDS011;32318;48.858;8.252;2023-05-17T00:11:34;8.55;;;1.85;;
46597;SDS011;32318;48.858;8.252;2023-05-17T00:19:34;6.50;;;1.60;;
46597;SDS011;32318;48.858;8.252;2023-05-17T00:27:35;4.78;;;1.33;;
46597;SDS011;32318;48.858;8.252;2023-05-17T00:35:35;4.25;;;1.30;;
46597;SDS011;32318;48.858;8.252;2023-05-17T00:43:35;8.50;;;1.65;;
46597;SDS011;32318;48.858;8.252;2023-05-17T00:51:36;4.20;;;1.27;;
46597;SDS011;32318;48.858;8.252;2023-05-17T00:59:36;8.75;;;1.40;;
46597;SDS011;32318;48.858;8.252;2023-05-17T01:07:37;3.87;;;1.40;;
46597;SDS011;32318;48.858;8.252;2023-05-17T01:15:40;3.78;;;1.30;;
46597;SDS011;32318;48.858;8.252;2023-05-17T01:23:48;13.45;;;2.25;;
46597;SDS011;32318;48.858;8.252;2023-05-17T01:31:55;3.22;;;1.60;;
46597;SDS011;32318;48.858;8.252;2023-05-17T01:39:58;5.00;;;1.40;;
46597;SDS011;32318;48.858;8.252;2023-05-17T01:48:09;11.23;;;1.90;;
46597;SDS011;32318;48.858;8.252;2023-05-17T01:56:20;14.00;;;2.45;;
46597;SDS011;32318;48.858;8.252;2023-05-17T02:04:26;4.57;;;1.38;;
46597;SDS011;32318;48.858;8.252;2023-05-17T02:12:28;4.05;;;1.40;;
46597;SDS011;32318;48.858;8.252;2023-05-17T02:20:28;7.00;;;1.63;;
46597;SDS011;32318;48.858;8.252;2023-05-17T02:28:29;5.80;;;1.60;;
46597;SDS011;32318;48.858;8.252;2023-05-17T02:36:29;5.80;;;1.90;;
46597;SDS011;32318;48.858;8.252;2023-05-17T03:18:43;6.53;;;1.90;;
46597;SDS011;32318;48.858;8.252;2023-05-17T04:02:23;6.28;;;2.10;;
46597;SDS011;32318;48.858;8.252;2023-05-17T04:10:23;8.80;;;2.10;;
46597;SDS011;32318;48.858;8.252;2023-05-17T05:24:35;10.02;;;2.38;;
46597;SDS011;32318;48.858;8.252;2023-05-17T05:32:35;8.82;;;2.83;;
46597;SDS011;32318;48.858;8.252;2023-05-17T05:40:38;9.25;;;2.78;;
46597;SDS011;32318;48.858;8.252;2023-05-17T05:48:41;14.35;;;3.50;;
46597;SDS011;32318;48.858;8.252;2023-05-17T05:56:42;14.25;;;3.35;;
46597;SDS011;32318;48.858;8.252;2023-05-17T06:04:42;17.17;;;3.78;;
46597;SDS011;32318;48.858;8.252;2023-05-17T06:12:42;13.23;;;3.75;;
46597;SDS011;32318;48.858;8.252;2023-05-17T06:20:43;11.32;;;3.78;;
46597;SDS011;32318;48.858;8.252;2023-05-17T06:28:43;15.02;;;3.67;;
46597;SDS011;32318;48.858;8.252;2023-05-17T06:36:43;19.08;;;3.30;;
46597;SDS011;32318;48.858;8.252;2023-05-17T06:44:43;13.25;;;3.38;;
46597;SDS011;32318;48.858;8.252;2023-05-17T06:52:44;17.52;;;4.00;;
46597;SDS011;32318;48.858;8.252;2023-05-17T07:00:45;11.32;;;3.38;;
46597;SDS011;32318;48.858;8.252;2023-05-17T07:08:45;8.85;;;3.28;;
46597;SDS011;32318;48.858;8.252;2023-05-17T07:16:46;24.20;;;3.67;;
46597;SDS011;32318;48.858;8.252;2023-05-17T07:24:48;10.73;;;3.25;;
46597;SDS011;32318;48.858;8.252;2023-05-17T07:32:48;18.63;;;3.08;;
46597;SDS011;32318;48.858;8.252;2023-05-17T07:40:48;10.40;;;3.08;;
46597;SDS011;32318;48.858;8.252;2023-05-17T07:48:48;9.82;;;3.22;;
46597;SDS011;32318;48.858;8.252;2023-05-17T07:56:49;19.02;;;3.15;;
46597;SDS011;32318;48.858;8.252;2023-05-17T08:04:49;14.57;;;3.30;;
46597;SDS011;32318;48.858;8.252;2023-05-17T08:12:50;10.25;;;3.08;;
46597;SDS011;32318;48.858;8.252;2023-05-17T08:20:50;10.57;;;2.70;;
46597;SDS011;32318;48.858;8.252;2023-05-17T08:28:51;24.20;;;4.43;;
46597;SDS011;32318;48.858;8.252;2023-05-17T08:36:51;8.95;;;2.75;;
46597;SDS011;32318;48.858;8.252;2023-05-17T08:44:52;13.32;;;3.20;;
46597;SDS011;32318;48.858;8.252;2023-05-17T08:52:53;12.60;;;3.63;;
46597;SDS011;32318;48.858;8.252;2023-05-17T09:00:55;20.65;;;4.53;;
46597;SDS011;32318;48.858;8.252;2023-05-17T09:08:57;14.05;;;3.72;;
46597;SDS011;32318;48.858;8.252;2023-05-17T09:17:00;14.50;;;3.60;;
46597;SDS011;32318;48.858;8.252;2023-05-17T09:25:00;12.30;;;3.27;;
46597;SDS011;32318;48.858;8.252;2023-05-17T09:33:04;16.40;;;4.47;;
46597;SDS011;32318;48.858;8.252;2023-05-17T09:41:06;18.20;;;4.00;;
46597;SDS011;32318;48.858;8.252;2023-05-17T09:49:06;10.23;;;3.65;;
46597;SDS011;32318;48.858;8.252;2023-05-17T09:57:08;13.65;;;3.72;;
46597;SDS011;32318;48.858;8.252;2023-05-17T10:05:09;15.93;;;4.35;;
46597;SDS011;32318;48.858;8.252;2023-05-17T10:13:11;21.67;;;4.45;;
46597;SDS011;32318;48.858;8.252;2023-05-17T10:21:14;14.43;;;3.75;;
46597;SDS011;32318;48.858;8.252;2023-05-17T10:29:16;15.70;;;3.70;;
46597;SDS011;32318;48.858;8.252;2023-05-17T10:37:19;15.00;;;4.20;;
46597;SDS011;32318;48.858;8.252;2023-05-17T10:45:22;10.98;;;3.20;;
46597;SDS011;32318;48.858;8.252;2023-05-17T10:53:24;11.77;;;3.35;;
46597;SDS011;32318;48.858;8.252;2023-05-17T11:09:55;13.95;;;3.30;;
46597;SDS011;32318;48.858;8.252;2023-05-17T11:17:58;11.95;;;3.00;;
46597;SDS011;32318;48.858;8.252;2023-05-17T11:26:10;14.90;;;2.95;;
46597;SDS011;32318;48.858;8.252;2023-05-17T11:34:15;20.98;;;2.80;;
46597;SDS011;32318;48.858;8.252;2023-05-17T11:42:22;7.07;;;2.88;;
46597;SDS011;32318;48.858;8.252;2023-05-17T11:50:24;11.43;;;2.75;;
46597;SDS011;32318;48.858;8.252;2023-05-17T11:58:25;11.57;;;2.78;;
46597;SDS011;32318;48.858;8.252;2023-05-17T12:06:26;13.83;;;3.43;;
46597;SDS011;32318;48.858;8.252;2023-05-17T12:14:27;7.75;;;2.80;;
46597;SDS011;32318;48.858;8.252;2023-05-17T12:22:28;9.25;;;3.10;;
46597;SDS011;32318;48.858;8.252;2023-05-17T12:30:29;5.23;;;2.20;;
46597;SDS011;32318;48.858;8.252;2023-05-17T12:38:32;5.43;;;2.58;;
46597;SDS011;32318;48.858;8.252;2023-05-17T12:46:34;9.05;;;2.85;;
46597;SDS011;32318;48.858;8.252;2023-05-17T12:54:34;9.75;;;2.88;;
46597;SDS011;32318;48.858;8.252;2023-05-17T13:02:35;6.75;;;2.97;;
46597;SDS011;32318;48.858;8.252;2023-05-17T13:10:35;9.10;;;3.00;;
46597;SDS011;32318;48.858;8.252;2023-05-17T13:18:51;8.32;;;2.72;;
46597;SDS011;32318;48.858;8.252;2023-05-17T13:26:51;8.77;;;3.10;;
46597;SDS011;32318;48.858;8.252;2023-05-17T13:34:51;13.43;;;3.60;;
46597;SDS011;32318;48.858;8.252;2023-05-17T13:42:52;14.00;;;3.33;;
46597;SDS011;32318;48.858;8.252;2023-05-17T13:50:52;5.47;;;2.58;;
46597;SDS011;32318;48.858;8.252;2023-05-17T13:58:52;9.32;;;3.10;;
46597;SDS011;32318;48.858;8.252;2023-05-17T14:06:52;8.65;;;2.55;;
46597;SDS011;32318;48.858;8.252;2023-05-17T14:14:53;8.90;;;2.47;;
46597;SDS011;32318;48.858;8.252;2023-05-17T14:22:53;7.03;;;2.97;;
46597;SDS011;32318;48.858;8.252;2023-05-17T14:30:53;11.45;;;2.83;;
46597;SDS011;32318;48.858;8.252;2023-05-17T14:38:54;6.83;;;2.80;;
46597;SDS011;32318;48.858;8.252;2023-05-17T14:46:57;8.63;;;2.83;;
46597;SDS011;32318;48.858;8.252;2023-05-17T14:54:57;7.13;;;2.60;;
46597;SDS011;32318;48.858;8.252;2023-05-17T15:02:58;8.05;;;2.92;;
46597;SDS011;32318;48.858;8.252;2023-05-17T15:10:58;11.70;;;2.95;;
46597;SDS011;32318;48.858;8.252;2023-05-17T15:18:58;10.18;;;2.92;;
46597;SDS011;32318;48.858;8.252;2023-05-17T15:26:59;13.57;;;3.22;;
46597;SDS011;32318;48.858;8.252;2023-05-17T15:35:00;7.32;;;2.75;;
46597;SDS011;32318;48.858;8.252;2023-05-17T15:43:00;10.55;;;2.80;;
46597;SDS011;32318;48.858;8.252;2023-05-17T15:51:00;9.85;;;2.78;;
46597;SDS011;32318;48.858;8.252;2023-05-17T15:59:01;11.40;;;2.65;;
46597;SDS011;32318;48.858;8.252;2023-05-17T16:07:01;5.97;;;2.58;;
46597;SDS011;32318;48.858;8.252;2023-05-17T16:15:01;10.93;;;2.30;;
46597;SDS011;32318;48.858;8.252;2023-05-17T16:31:27;10.35;;;2.78;;
46597;SDS011;32318;48.858;8.252;2023-05-17T16:39:27;14.45;;;3.17;;
46597;SDS011;32318;48.858;8.252;2023-05-17T16:47:56;12.20;;;3.00;;
46597;SDS011;32318;48.858;8.252;2023-05-17T16:55:56;11.02;;;2.67;;
46597;SDS011;32318;48.858;8.252;2023-05-17T17:04:01;15.80;;;2.55;;
46597;SDS011;32318;48.858;8.252;2023-05-17T17:12:12;11.02;;;2.80;;
46597;SDS011;32318;48.858;8.252;2023-05-17T17:20:13;12.05;;;2.45;;
46597;SDS011;32318;48.858;8.252;2023-05-17T17:28:13;9.47;;;2.97;;
46597;SDS011;32318;48.858;8.252;2023-05-17T17:44:35;13.13;;;2.80;;
46597;SDS011;32318;48.858;8.252;2023-05-17T17:52:36;12.00;;;2.60;;
46597;SDS011;32318;48.858;8.252;2023-05-17T18:00:36;8.15;;;2.60;;
46597;SDS011;32318;48.858;8.252;2023-05-17T18:08:36;11.23;;;2.73;;
46597;SDS011;32318;48.858;8.252;2023-05-17T18:16:37;7.72;;;2.28;;
46597;SDS011;32318;48.858;8.252;2023-05-17T18:24:37;8.00;;;2.67;;
46597;SDS011;32318;48.858;8.252;2023-05-17T18:32:37;11.45;;;2.75;;
46597;SDS011;32318;48.858;8.252;2023-05-17T18:40:37;7.25;;;2.35;;
46597;SDS011;32318;48.858;8.252;2023-05-17T18:48:38;10.45;;;2.35;;
46597;SDS011;32318;48.858;8.252;2023-05-17T18:56:39;12.65;;;2.67;;
46597;SDS011;32318;48.858;8.252;2023-05-17T19:04:40;13.05;;;2.97;;
46597;SDS011;32318;48.858;8.252;2023-05-17T19:12:40;15.00;;;3.13;;
46597;SDS011;32318;48.858;8.252;2023-05-17T19:20:41;10.45;;;2.80;;
46597;SDS011;32318;48.858;8.252;2023-05-17T19:28:41;7.95;;;3.03;;
46597;SDS011;32318;48.858;8.252;2023-05-17T19:36:41;8.20;;;2.75;;
46597;SDS011;32318;48.858;8.252;2023-05-17T19:44:42;10.90;;;3.13;;
46597;SDS011;32318;48.858;8.252;2023-05-17T19:52:42;7.60;;;3.20;;
46597;SDS011;32318;48.858;8.252;2023-05-17T20:00:43;9.43;;;2.92;;
46597;SDS011;32318;48.858;8.252;2023-05-17T20:08:43;6.28;;;3.05;;
46597;SDS011;32318;48.858;8.252;2023-05-17T20:16:45;12.50;;;3.65;;
46597;SDS011;32318;48.858;8.252;2023-05-17T20:24:45;9.30;;;3.55;;
46597;SDS011;32318;48.858;8.252;2023-05-17T20:32:45;12.65;;;3.60;;
46597;SDS011;32318;48.858;8.252;2023-05-17T20:40:46;12.05;;;4.72;;
46597;SDS011;32318;48.858;8.252;2023-05-17T20:48:46;15.07;;;4.97;;
46597;SDS011;32318;48.858;8.252;2023-05-17T20:56:49;14.13;;;4.47;;
46597;SDS011;32318;48.858;8.252;2023-05-17T21:04:50;13.93;;;4.32;;
46597;SDS011;32318;48.858;8.252;2023-05-17T21:12:51;12.20;;;4.22;;
46597;SDS011;32318;48.858;8.252;2023-05-17T21:20:51;13.63;;;4.68;;
46597;SDS011;32318;48.858;8.252;2023-05-17T21:28:53;11.85;;;4.15;;
46597;SDS011;32318;48.858;8.252;2023-05-17T21:36:54;10.88;;;4.20;;
46597;SDS011;32318;48.858;8.252;2023-05-17T21:44:54;16.92;;;4.07;;
46597;SDS011;32318;48.858;8.252;2023-05-17T21:52:55;10.43;;;3.83;;
46597;SDS011;32318;48.858;8.252;2023-05-17T22:00:56;12.38;;;4.72;;
46597;SDS011;32318;48.858;8.252;2023-05-17T22:08:56;12.25;;;4.13;;
46597;SDS011;32318;48.858;8.252;2023-05-17T22:17:00;10.90;;;3.72;;
46597;SDS011;32318;48.858;8.252;2023-05-17T22:25:00;13.27;;;4.18;;
46597;SDS011;32318;48.858;8.252;2023-05-17T22:33:00;8.93;;;4.13;;
46597;SDS011;32318;48.858;8.252;2023-05-17T22:41:01;11.63;;;4.13;;
46597;SDS011;32318;48.858;8.252;2023-05-17T22:49:02;14.20;;;4.30;;
46597;SDS011;32318;48.858;8.252;2023-05-17T22:57:02;8.57;;;3.40;;
46597;SDS011;32318;48.858;8.252;2023-05-17T23:05:03;15.70;;;4.05;;
46597;SDS011;32318;48.858;8.252;2023-05-17T23:13:04;10.82;;;3.80;;
46597;SDS011;32318;48.858;8.252;2023-05-17T23:21:05;10.35;;;3.80;;
46597;SDS011;32318;48.858;8.252;2023-05-17T23:29:05;20.23;;;3.97;;
46597;SDS011;32318;48.858;8.252;2023-05-17T23:37:05;12.25;;;4.00;;
46597;SDS011;32318;48.858;8.252;2023-05-17T23:45:06;8.30;;;4.18;;
46597;SDS011;32318;48.858;8.252;2023-05-17T23:53:06;8.63;;;3.97;;
